sensor_id;sensor_type;location;lat;lon;timestamp;P1;durP1;ratioP1;P2;durP2;ratioP2
56477;SDS011;42382;53.210;5.772;2022-08-16T00:00:17;15.93;;;11.15;;
56477;SDS011;42382;53.210;5.772;2022-08-16T00:02:44;14.05;;;12.55;;
56477;SDS011;42382;53.210;5.772;2022-08-16T00:05:10;14.85;;;11.02;;
56477;SDS011;42382;53.210;5.772;2022-08-16T00:07:37;14.35;;;10.77;;
56477;SDS011;42382;53.210;5.772;2022-08-16T00:10:04;13.02;;;11.25;;
56477;SDS011;42382;53.210;5.772;2022-08-16T00:12:31;14.02;;;12.60;;
56477;SDS011;42382;53.210;5.772;2022-08-16T00:14:57;13.50;;;11.55;;
56477;SDS011;42382;53.210;5.772;2022-08-16T00:17:25;13.43;;;11.95;;
56477;SDS011;42382;53.210;5.772;2022-08-16T00:19:51;15.27;;;13.35;;
56477;SDS011;42382;53.210;5.772;2022-08-16T00:22:17;14.93;;;12.15;;
56477;SDS011;42382;53.210;5.772;2022-08-16T00:24:43;15.40;;;11.65;;
56477;SDS011;42382;53.210;5.772;2022-08-16T00:27:09;22.65;;;12.70;;
56477;SDS011;42382;53.210;5.772;2022-08-16T00:29:35;15.02;;;11.40;;
56477;SDS011;42382;53.210;5.772;2022-08-16T00:32:01;11.52;;;10.32;;
56477;SDS011;42382;53.210;5.772;2022-08-16T00:34:29;15.43;;;12.27;;
56477;SDS011;42382;53.210;5.772;2022-08-16T00:36:54;19.67;;;12.52;;
56477;SDS011;42382;53.210;5.772;2022-08-16T00:39:20;14.65;;;12.10;;
56477;SDS011;42382;53.210;5.772;2022-08-16T00:41:46;16.95;;;12.82;;
56477;SDS011;42382;53.210;5.772;2022-08-16T00:44:13;16.92;;;14.20;;
56477;SDS011;42382;53.210;5.772;2022-08-16T00:49:16;17.33;;;14.20;;
56477;SDS011;42382;53.210;5.772;2022-08-16T00:51:42;18.70;;;14.32;;
56477;SDS011;42382;53.210;5.772;2022-08-16T00:54:08;16.23;;;13.15;;
56477;SDS011;42382;53.210;5.772;2022-08-16T00:56:35;17.25;;;13.00;;
56477;SDS011;42382;53.210;5.772;2022-08-16T00:59:04;16.83;;;13.57;;
56477;SDS011;42382;53.210;5.772;2022-08-16T01:01:32;18.80;;;15.63;;
56477;SDS011;42382;53.210;5.772;2022-08-16T01:03:58;17.40;;;14.40;;
56477;SDS011;42382;53.210;5.772;2022-08-16T01:06:24;18.27;;;16.35;;
56477;SDS011;42382;53.210;5.772;2022-08-16T01:08:51;19.15;;;15.63;;
56477;SDS011;42382;53.210;5.772;2022-08-16T01:11:19;16.73;;;14.80;;
56477;SDS011;42382;53.210;5.772;2022-08-16T01:13:45;18.92;;;16.27;;
56477;SDS011;42382;53.210;5.772;2022-08-16T01:16:14;17.27;;;15.05;;
56477;SDS011;42382;53.210;5.772;2022-08-16T01:18:47;17.33;;;15.48;;
56477;SDS011;42382;53.210;5.772;2022-08-16T01:21:26;17.30;;;15.50;;
56477;SDS011;42382;53.210;5.772;2022-08-16T01:24:10;19.70;;;16.67;;
56477;SDS011;42382;53.210;5.772;2022-08-16T01:26:37;19.02;;;16.15;;
56477;SDS011;42382;53.210;5.772;2022-08-16T01:29:05;18.90;;;17.00;;
56477;SDS011;42382;53.210;5.772;2022-08-16T01:31:34;18.05;;;16.15;;
56477;SDS011;42382;53.210;5.772;2022-08-16T01:34:00;20.60;;;16.45;;
56477;SDS011;42382;53.210;5.772;2022-08-16T01:36:26;20.50;;;18.30;;
56477;SDS011;42382;53.210;5.772;2022-08-16T01:38:53;18.58;;;16.48;;
56477;SDS011;42382;53.210;5.772;2022-08-16T01:41:21;19.42;;;17.42;;
56477;SDS011;42382;53.210;5.772;2022-08-16T01:43:49;19.63;;;17.63;;
56477;SDS011;42382;53.210;5.772;2022-08-16T01:46:20;22.20;;;17.42;;
56477;SDS011;42382;53.210;5.772;2022-08-16T01:48:48;21.27;;;17.42;;
56477;SDS011;42382;53.210;5.772;2022-08-16T01:51:23;23.35;;;17.65;;
56477;SDS011;42382;53.210;5.772;2022-08-16T01:53:51;20.90;;;15.60;;
56477;SDS011;42382;53.210;5.772;2022-08-16T01:56:17;18.05;;;16.20;;
56477;SDS011;42382;53.210;5.772;2022-08-16T01:58:43;20.45;;;16.30;;
56477;SDS011;42382;53.210;5.772;2022-08-16T02:01:09;22.23;;;17.67;;
56477;SDS011;42382;53.210;5.772;2022-08-16T02:03:35;19.23;;;17.08;;
56477;SDS011;42382;53.210;5.772;2022-08-16T02:06:00;22.33;;;16.98;;
56477;SDS011;42382;53.210;5.772;2022-08-16T02:08:26;22.00;;;19.73;;
56477;SDS011;42382;53.210;5.772;2022-08-16T02:10:52;20.23;;;18.23;;
56477;SDS011;42382;53.210;5.772;2022-08-16T02:13:20;21.40;;;17.58;;
56477;SDS011;42382;53.210;5.772;2022-08-16T02:15:46;22.42;;;20.05;;
56477;SDS011;42382;53.210;5.772;2022-08-16T02:18:12;21.50;;;18.17;;
56477;SDS011;42382;53.210;5.772;2022-08-16T02:20:39;21.98;;;18.42;;
56477;SDS011;42382;53.210;5.772;2022-08-16T02:23:06;21.10;;;18.85;;
56477;SDS011;42382;53.210;5.772;2022-08-16T02:25:33;23.08;;;18.13;;
56477;SDS011;42382;53.210;5.772;2022-08-16T02:27:59;22.67;;;18.38;;
56477;SDS011;42382;53.210;5.772;2022-08-16T02:30:27;24.08;;;21.35;;
56477;SDS011;42382;53.210;5.772;2022-08-16T02:32:54;22.55;;;17.90;;
56477;SDS011;42382;53.210;5.772;2022-08-16T02:35:21;23.45;;;19.05;;
56477;SDS011;42382;53.210;5.772;2022-08-16T02:37:47;22.70;;;18.92;;
56477;SDS011;42382;53.210;5.772;2022-08-16T02:40:14;22.67;;;20.05;;
56477;SDS011;42382;53.210;5.772;2022-08-16T02:42:41;20.85;;;18.70;;
56477;SDS011;42382;53.210;5.772;2022-08-16T02:45:08;20.23;;;16.95;;
56477;SDS011;42382;53.210;5.772;2022-08-16T02:47:34;21.42;;;17.73;;
56477;SDS011;42382;53.210;5.772;2022-08-16T02:50:00;19.05;;;15.88;;
56477;SDS011;42382;53.210;5.772;2022-08-16T02:52:25;21.05;;;17.13;;
56477;SDS011;42382;53.210;5.772;2022-08-16T02:54:51;20.13;;;16.38;;
56477;SDS011;42382;53.210;5.772;2022-08-16T02:57:17;22.30;;;19.05;;
56477;SDS011;42382;53.210;5.772;2022-08-16T02:59:43;17.80;;;15.98;;
56477;SDS011;42382;53.210;5.772;2022-08-16T03:02:09;19.55;;;17.55;;
56477;SDS011;42382;53.210;5.772;2022-08-16T03:04:35;18.27;;;16.35;;
56477;SDS011;42382;53.210;5.772;2022-08-16T03:07:02;18.25;;;16.38;;
56477;SDS011;42382;53.210;5.772;2022-08-16T03:09:30;18.88;;;16.90;;
56477;SDS011;42382;53.210;5.772;2022-08-16T03:11:56;19.02;;;16.27;;
56477;SDS011;42382;53.210;5.772;2022-08-16T03:14:22;19.42;;;15.68;;
56477;SDS011;42382;53.210;5.772;2022-08-16T03:16:47;24.92;;;17.25;;
56477;SDS011;42382;53.210;5.772;2022-08-16T03:19:13;19.13;;;17.13;;
56477;SDS011;42382;53.210;5.772;2022-08-16T03:21:39;20.05;;;16.73;;
56477;SDS011;42382;53.210;5.772;2022-08-16T03:24:05;21.08;;;16.52;;
56477;SDS011;42382;53.210;5.772;2022-08-16T03:26:32;21.58;;;17.45;;
56477;SDS011;42382;53.210;5.772;2022-08-16T03:28:57;20.50;;;17.92;;
56477;SDS011;42382;53.210;5.772;2022-08-16T03:31:23;21.38;;;19.00;;
56477;SDS011;42382;53.210;5.772;2022-08-16T03:33:49;22.00;;;19.25;;
56477;SDS011;42382;53.210;5.772;2022-08-16T03:36:15;22.58;;;18.83;;
56477;SDS011;42382;53.210;5.772;2022-08-16T03:38:41;20.38;;;18.27;;
56477;SDS011;42382;53.210;5.772;2022-08-16T03:41:07;23.77;;;21.23;;
56477;SDS011;42382;53.210;5.772;2022-08-16T03:43:33;21.25;;;19.20;;
56477;SDS011;42382;53.210;5.772;2022-08-16T03:46:00;21.17;;;18.98;;
56477;SDS011;42382;53.210;5.772;2022-08-16T03:48:29;23.33;;;19.80;;
56477;SDS011;42382;53.210;5.772;2022-08-16T03:50:57;21.88;;;19.50;;
56477;SDS011;42382;53.210;5.772;2022-08-16T03:53:24;22.55;;;19.15;;
56477;SDS011;42382;53.210;5.772;2022-08-16T03:55:49;29.17;;;21.65;;
56477;SDS011;42382;53.210;5.772;2022-08-16T03:58:15;24.30;;;20.75;;
56477;SDS011;42382;53.210;5.772;2022-08-16T04:00:41;21.30;;;19.02;;
56477;SDS011;42382;53.210;5.772;2022-08-16T04:03:07;22.70;;;20.30;;
56477;SDS011;42382;53.210;5.772;2022-08-16T04:05:34;25.27;;;20.48;;
56477;SDS011;42382;53.210;5.772;2022-08-16T04:08:04;29.88;;;20.15;;
56477;SDS011;42382;53.210;5.772;2022-08-16T04:10:30;25.40;;;21.95;;
56477;SDS011;42382;53.210;5.772;2022-08-16T04:12:57;22.42;;;20.05;;
56477;SDS011;42382;53.210;5.772;2022-08-16T04:15:23;25.05;;;20.23;;
56477;SDS011;42382;53.210;5.772;2022-08-16T04:17:50;30.10;;;24.30;;
56477;SDS011;42382;53.210;5.772;2022-08-16T04:20:16;24.85;;;22.10;;
56477;SDS011;42382;53.210;5.772;2022-08-16T04:22:42;24.77;;;22.17;;
56477;SDS011;42382;53.210;5.772;2022-08-16T04:25:08;26.80;;;22.67;;
56477;SDS011;42382;53.210;5.772;2022-08-16T04:27:35;25.48;;;21.92;;
56477;SDS011;42382;53.210;5.772;2022-08-16T04:30:04;26.35;;;23.25;;
56477;SDS011;42382;53.210;5.772;2022-08-16T04:32:33;30.08;;;26.30;;
56477;SDS011;42382;53.210;5.772;2022-08-16T04:34:59;24.70;;;21.77;;
56477;SDS011;42382;53.210;5.772;2022-08-16T04:37:24;23.10;;;20.65;;
56477;SDS011;42382;53.210;5.772;2022-08-16T04:39:50;27.15;;;21.67;;
56477;SDS011;42382;53.210;5.772;2022-08-16T04:42:16;27.35;;;23.33;;
56477;SDS011;42382;53.210;5.772;2022-08-16T04:44:43;25.60;;;21.95;;
56477;SDS011;42382;53.210;5.772;2022-08-16T04:47:10;24.52;;;22.00;;
56477;SDS011;42382;53.210;5.772;2022-08-16T04:49:36;24.55;;;21.90;;
56477;SDS011;42382;53.210;5.772;2022-08-16T04:52:02;26.30;;;23.55;;
56477;SDS011;42382;53.210;5.772;2022-08-16T04:54:28;24.08;;;21.58;;
56477;SDS011;42382;53.210;5.772;2022-08-16T04:56:53;24.98;;;21.27;;
56477;SDS011;42382;53.210;5.772;2022-08-16T04:59:19;29.35;;;22.92;;
56477;SDS011;42382;53.210;5.772;2022-08-16T05:01:45;27.65;;;22.95;;
56477;SDS011;42382;53.210;5.772;2022-08-16T05:04:10;24.92;;;22.35;;
56477;SDS011;42382;53.210;5.772;2022-08-16T05:06:36;23.67;;;21.17;;
56477;SDS011;42382;53.210;5.772;2022-08-16T05:09:01;26.67;;;22.25;;
56477;SDS011;42382;53.210;5.772;2022-08-16T05:11:27;23.83;;;21.05;;
56477;SDS011;42382;53.210;5.772;2022-08-16T05:13:54;26.50;;;21.38;;
56477;SDS011;42382;53.210;5.772;2022-08-16T05:16:22;24.40;;;21.90;;
56477;SDS011;42382;53.210;5.772;2022-08-16T05:18:52;26.60;;;22.77;;
56477;SDS011;42382;53.210;5.772;2022-08-16T05:21:19;25.75;;;22.05;;
56477;SDS011;42382;53.210;5.772;2022-08-16T05:23:45;25.83;;;22.83;;
56477;SDS011;42382;53.210;5.772;2022-08-16T05:26:11;25.33;;;22.15;;
56477;SDS011;42382;53.210;5.772;2022-08-16T05:28:37;31.45;;;23.10;;
56477;SDS011;42382;53.210;5.772;2022-08-16T05:31:02;32.97;;;24.17;;
56477;SDS011;42382;53.210;5.772;2022-08-16T05:33:28;32.10;;;24.05;;
56477;SDS011;42382;53.210;5.772;2022-08-16T05:35:54;30.33;;;23.63;;
56477;SDS011;42382;53.210;5.772;2022-08-16T05:38:22;26.92;;;23.20;;
56477;SDS011;42382;53.210;5.772;2022-08-16T05:40:54;27.13;;;23.77;;
56477;SDS011;42382;53.210;5.772;2022-08-16T05:43:21;24.60;;;21.92;;
56477;SDS011;42382;53.210;5.772;2022-08-16T05:45:46;26.25;;;23.45;;
56477;SDS011;42382;53.210;5.772;2022-08-16T05:48:12;26.88;;;23.10;;
56477;SDS011;42382;53.210;5.772;2022-08-16T05:50:37;26.83;;;21.85;;
56477;SDS011;42382;53.210;5.772;2022-08-16T05:53:03;25.58;;;22.88;;
56477;SDS011;42382;53.210;5.772;2022-08-16T05:55:29;26.08;;;22.95;;
56477;SDS011;42382;53.210;5.772;2022-08-16T05:57:55;25.38;;;22.67;;
56477;SDS011;42382;53.210;5.772;2022-08-16T06:00:21;24.60;;;21.38;;
56477;SDS011;42382;53.210;5.772;2022-08-16T06:02:46;25.75;;;22.67;;
56477;SDS011;42382;53.210;5.772;2022-08-16T06:05:12;24.75;;;22.08;;
56477;SDS011;42382;53.210;5.772;2022-08-16T06:07:38;26.92;;;24.02;;
56477;SDS011;42382;53.210;5.772;2022-08-16T06:10:04;29.02;;;24.10;;
56477;SDS011;42382;53.210;5.772;2022-08-16T06:12:30;30.25;;;25.10;;
56477;SDS011;42382;53.210;5.772;2022-08-16T06:14:57;25.52;;;22.77;;
56477;SDS011;42382;53.210;5.772;2022-08-16T06:17:26;28.25;;;24.52;;
56477;SDS011;42382;53.210;5.772;2022-08-16T06:19:53;28.80;;;23.25;;
56477;SDS011;42382;53.210;5.772;2022-08-16T06:22:18;30.02;;;25.17;;
56477;SDS011;42382;53.210;5.772;2022-08-16T06:24:44;28.35;;;24.73;;
56477;SDS011;42382;53.210;5.772;2022-08-16T06:27:10;27.67;;;24.40;;
56477;SDS011;42382;53.210;5.772;2022-08-16T06:29:36;27.52;;;24.58;;
56477;SDS011;42382;53.210;5.772;2022-08-16T06:32:01;37.40;;;27.38;;
56477;SDS011;42382;53.210;5.772;2022-08-16T06:34:27;27.52;;;23.02;;
56477;SDS011;42382;53.210;5.772;2022-08-16T06:36:53;30.83;;;25.17;;
56477;SDS011;42382;53.210;5.772;2022-08-16T06:39:19;28.85;;;23.67;;
56477;SDS011;42382;53.210;5.772;2022-08-16T06:41:45;33.75;;;27.90;;
56477;SDS011;42382;53.210;5.772;2022-08-16T06:44:10;32.70;;;28.88;;
56477;SDS011;42382;53.210;5.772;2022-08-16T06:46:36;30.65;;;25.40;;
56477;SDS011;42382;53.210;5.772;2022-08-16T06:49:04;37.30;;;29.90;;
56477;SDS011;42382;53.210;5.772;2022-08-16T06:51:32;30.08;;;25.25;;
56477;SDS011;42382;53.210;5.772;2022-08-16T06:53:57;35.95;;;29.05;;
56477;SDS011;42382;53.210;5.772;2022-08-16T06:56:23;37.67;;;29.50;;
56477;SDS011;42382;53.210;5.772;2022-08-16T06:58:49;32.85;;;28.48;;
56477;SDS011;42382;53.210;5.772;2022-08-16T07:01:16;30.58;;;25.98;;
56477;SDS011;42382;53.210;5.772;2022-08-16T07:03:42;34.00;;;25.77;;
56477;SDS011;42382;53.210;5.772;2022-08-16T07:06:07;36.53;;;28.50;;
56477;SDS011;42382;53.210;5.772;2022-08-16T07:08:33;29.35;;;24.15;;
56477;SDS011;42382;53.210;5.772;2022-08-16T07:10:59;34.40;;;27.77;;
56477;SDS011;42382;53.210;5.772;2022-08-16T07:13:25;28.45;;;24.17;;
56477;SDS011;42382;53.210;5.772;2022-08-16T07:15:51;26.23;;;23.10;;
56477;SDS011;42382;53.210;5.772;2022-08-16T07:18:17;29.15;;;22.98;;
56477;SDS011;42382;53.210;5.772;2022-08-16T07:20:46;25.00;;;22.05;;
56477;SDS011;42382;53.210;5.772;2022-08-16T07:23:13;25.83;;;20.52;;
56477;SDS011;42382;53.210;5.772;2022-08-16T07:25:39;29.88;;;21.63;;
56477;SDS011;42382;53.210;5.772;2022-08-16T07:28:05;31.30;;;23.40;;
56477;SDS011;42382;53.210;5.772;2022-08-16T07:30:31;28.27;;;22.92;;
56477;SDS011;42382;53.210;5.772;2022-08-16T07:32:57;29.92;;;22.80;;
56477;SDS011;42382;53.210;5.772;2022-08-16T07:35:23;26.92;;;22.02;;
56477;SDS011;42382;53.210;5.772;2022-08-16T07:37:49;26.35;;;21.25;;
56477;SDS011;42382;53.210;5.772;2022-08-16T07:40:15;27.15;;;21.70;;
56477;SDS011;42382;53.210;5.772;2022-08-16T07:42:41;26.75;;;22.20;;
56477;SDS011;42382;53.210;5.772;2022-08-16T07:45:07;26.40;;;21.02;;
56477;SDS011;42382;53.210;5.772;2022-08-16T07:47:34;24.90;;;20.40;;
56477;SDS011;42382;53.210;5.772;2022-08-16T07:50:00;28.23;;;22.85;;
56477;SDS011;42382;53.210;5.772;2022-08-16T07:52:26;27.35;;;21.63;;
56477;SDS011;42382;53.210;5.772;2022-08-16T07:54:51;23.13;;;19.00;;
56477;SDS011;42382;53.210;5.772;2022-08-16T07:57:17;22.45;;;20.05;;
56477;SDS011;42382;53.210;5.772;2022-08-16T07:59:43;24.00;;;18.85;;
56477;SDS011;42382;53.210;5.772;2022-08-16T08:02:09;23.02;;;20.55;;
56477;SDS011;42382;53.210;5.772;2022-08-16T08:04:36;22.65;;;19.92;;
56477;SDS011;42382;53.210;5.772;2022-08-16T08:07:02;21.63;;;19.30;;
56477;SDS011;42382;53.210;5.772;2022-08-16T08:09:28;23.10;;;20.50;;
56477;SDS011;42382;53.210;5.772;2022-08-16T08:11:53;20.35;;;18.25;;
56477;SDS011;42382;53.210;5.772;2022-08-16T08:14:19;22.25;;;18.33;;
56477;SDS011;42382;53.210;5.772;2022-08-16T08:16:45;21.75;;;17.35;;
56477;SDS011;42382;53.210;5.772;2022-08-16T08:19:11;24.67;;;19.73;;
56477;SDS011;42382;53.210;5.772;2022-08-16T08:21:37;21.50;;;19.27;;
56477;SDS011;42382;53.210;5.772;2022-08-16T08:24:05;22.30;;;18.55;;
56477;SDS011;42382;53.210;5.772;2022-08-16T08:26:32;24.85;;;20.48;;
56477;SDS011;42382;53.210;5.772;2022-08-16T08:28:58;24.25;;;18.27;;
56477;SDS011;42382;53.210;5.772;2022-08-16T08:31:24;21.10;;;18.98;;
56477;SDS011;42382;53.210;5.772;2022-08-16T08:33:49;24.00;;;18.90;;
56477;SDS011;42382;53.210;5.772;2022-08-16T08:36:16;19.17;;;16.15;;
56477;SDS011;42382;53.210;5.772;2022-08-16T08:38:49;22.67;;;18.30;;
56477;SDS011;42382;53.210;5.772;2022-08-16T08:41:16;21.35;;;17.95;;
56477;SDS011;42382;53.210;5.772;2022-08-16T08:43:42;19.25;;;16.13;;
56477;SDS011;42382;53.210;5.772;2022-08-16T08:46:09;20.25;;;15.45;;
56477;SDS011;42382;53.210;5.772;2022-08-16T08:48:34;16.80;;;14.15;;
56477;SDS011;42382;53.210;5.772;2022-08-16T08:51:00;16.40;;;14.65;;
56477;SDS011;42382;53.210;5.772;2022-08-16T08:53:27;14.35;;;12.57;;
56477;SDS011;42382;53.210;5.772;2022-08-16T08:55:53;15.80;;;13.63;;
56477;SDS011;42382;53.210;5.772;2022-08-16T08:58:18;17.05;;;14.13;;
56477;SDS011;42382;53.210;5.772;2022-08-16T09:00:44;19.95;;;16.52;;
56477;SDS011;42382;53.210;5.772;2022-08-16T09:03:10;19.65;;;15.50;;
56477;SDS011;42382;53.210;5.772;2022-08-16T09:05:38;16.17;;;13.30;;
56477;SDS011;42382;53.210;5.772;2022-08-16T09:08:04;16.30;;;13.73;;
56477;SDS011;42382;53.210;5.772;2022-08-16T09:10:30;15.60;;;14.00;;
56477;SDS011;42382;53.210;5.772;2022-08-16T09:12:57;14.98;;;12.50;;
56477;SDS011;42382;53.210;5.772;2022-08-16T09:15:23;12.75;;;11.45;;
56477;SDS011;42382;53.210;5.772;2022-08-16T09:17:50;14.98;;;12.88;;
56477;SDS011;42382;53.210;5.772;2022-08-16T09:20:19;16.20;;;12.80;;
56477;SDS011;42382;53.210;5.772;2022-08-16T09:22:47;15.85;;;11.55;;
56477;SDS011;42382;53.210;5.772;2022-08-16T09:25:14;16.33;;;11.48;;
56477;SDS011;42382;53.210;5.772;2022-08-16T09:27:40;16.60;;;12.38;;
56477;SDS011;42382;53.210;5.772;2022-08-16T09:30:06;19.05;;;13.13;;
56477;SDS011;42382;53.210;5.772;2022-08-16T09:32:32;14.77;;;13.15;;
56477;SDS011;42382;53.210;5.772;2022-08-16T09:34:58;18.73;;;13.35;;
56477;SDS011;42382;53.210;5.772;2022-08-16T09:37:26;17.33;;;14.82;;
56477;SDS011;42382;53.210;5.772;2022-08-16T09:39:54;17.45;;;14.98;;
56477;SDS011;42382;53.210;5.772;2022-08-16T09:42:20;15.32;;;12.77;;
56477;SDS011;42382;53.210;5.772;2022-08-16T09:44:46;21.90;;;14.27;;
56477;SDS011;42382;53.210;5.772;2022-08-16T09:47:12;19.08;;;15.40;;
56477;SDS011;42382;53.210;5.772;2022-08-16T09:49:38;15.65;;;13.38;;
56477;SDS011;42382;53.210;5.772;2022-08-16T09:52:04;14.90;;;12.40;;
56477;SDS011;42382;53.210;5.772;2022-08-16T09:54:29;16.52;;;11.45;;
56477;SDS011;42382;53.210;5.772;2022-08-16T09:56:55;13.00;;;11.40;;
56477;SDS011;42382;53.210;5.772;2022-08-16T09:59:21;16.15;;;12.55;;
56477;SDS011;42382;53.210;5.772;2022-08-16T10:01:48;13.18;;;11.57;;
56477;SDS011;42382;53.210;5.772;2022-08-16T10:04:16;16.40;;;13.27;;
56477;SDS011;42382;53.210;5.772;2022-08-16T10:06:43;17.95;;;14.73;;
56477;SDS011;42382;53.210;5.772;2022-08-16T10:09:10;16.52;;;13.45;;
56477;SDS011;42382;53.210;5.772;2022-08-16T10:11:37;16.67;;;11.57;;
56477;SDS011;42382;53.210;5.772;2022-08-16T10:14:22;15.15;;;11.77;;
56477;SDS011;42382;53.210;5.772;2022-08-16T10:16:48;15.02;;;12.63;;
56477;SDS011;42382;53.210;5.772;2022-08-16T10:19:15;12.65;;;9.63;;
56477;SDS011;42382;53.210;5.772;2022-08-16T10:21:41;9.30;;;8.27;;
56477;SDS011;42382;53.210;5.772;2022-08-16T10:24:08;11.57;;;9.27;;
56477;SDS011;42382;53.210;5.772;2022-08-16T10:26:35;11.52;;;9.02;;
56477;SDS011;42382;53.210;5.772;2022-08-16T10:29:01;17.25;;;13.45;;
56477;SDS011;42382;53.210;5.772;2022-08-16T10:31:29;11.70;;;9.13;;
56477;SDS011;42382;53.210;5.772;2022-08-16T10:33:55;12.05;;;9.35;;
56477;SDS011;42382;53.210;5.772;2022-08-16T10:36:21;11.63;;;9.40;;
56477;SDS011;42382;53.210;5.772;2022-08-16T10:38:47;11.02;;;8.32;;
56477;SDS011;42382;53.210;5.772;2022-08-16T10:41:12;11.35;;;9.68;;
56477;SDS011;42382;53.210;5.772;2022-08-16T10:43:39;9.48;;;7.57;;
56477;SDS011;42382;53.210;5.772;2022-08-16T10:46:07;13.95;;;9.27;;
56477;SDS011;42382;53.210;5.772;2022-08-16T10:48:36;14.45;;;10.20;;
56477;SDS011;42382;53.210;5.772;2022-08-16T10:51:02;12.77;;;10.73;;
56477;SDS011;42382;53.210;5.772;2022-08-16T10:53:28;10.25;;;7.70;;
56477;SDS011;42382;53.210;5.772;2022-08-16T10:55:56;7.93;;;7.03;;
56477;SDS011;42382;53.210;5.772;2022-08-16T10:58:24;12.73;;;8.65;;
56477;SDS011;42382;53.210;5.772;2022-08-16T11:00:50;11.07;;;8.32;;
56477;SDS011;42382;53.210;5.772;2022-08-16T11:03:15;14.30;;;11.98;;
56477;SDS011;42382;53.210;5.772;2022-08-16T11:05:41;14.73;;;10.43;;
56477;SDS011;42382;53.210;5.772;2022-08-16T11:08:08;15.68;;;11.32;;
56477;SDS011;42382;53.210;5.772;2022-08-16T11:10:38;11.52;;;10.10;;
56477;SDS011;42382;53.210;5.772;2022-08-16T11:13:05;9.23;;;7.45;;
56477;SDS011;42382;53.210;5.772;2022-08-16T11:15:32;8.18;;;5.70;;
56477;SDS011;42382;53.210;5.772;2022-08-16T11:17:59;6.85;;;5.18;;
56477;SDS011;42382;53.210;5.772;2022-08-16T11:20:25;12.90;;;6.80;;
56477;SDS011;42382;53.210;5.772;2022-08-16T11:22:52;7.03;;;6.15;;
56477;SDS011;42382;53.210;5.772;2022-08-16T11:25:20;11.68;;;7.82;;
56477;SDS011;42382;53.210;5.772;2022-08-16T11:27:49;12.45;;;6.53;;
56477;SDS011;42382;53.210;5.772;2022-08-16T11:30:16;10.38;;;6.97;;
56477;SDS011;42382;53.210;5.772;2022-08-16T11:32:42;11.93;;;7.72;;
56477;SDS011;42382;53.210;5.772;2022-08-16T11:35:10;10.88;;;8.30;;
56477;SDS011;42382;53.210;5.772;2022-08-16T11:37:43;9.88;;;6.75;;
56477;SDS011;42382;53.210;5.772;2022-08-16T11:40:11;12.32;;;8.10;;
56477;SDS011;42382;53.210;5.772;2022-08-16T11:42:37;12.07;;;7.82;;
56477;SDS011;42382;53.210;5.772;2022-08-16T11:45:03;9.32;;;6.70;;
56477;SDS011;42382;53.210;5.772;2022-08-16T11:47:29;10.15;;;5.97;;
56477;SDS011;42382;53.210;5.772;2022-08-16T11:49:54;10.10;;;5.78;;
56477;SDS011;42382;53.210;5.772;2022-08-16T11:52:20;9.45;;;6.43;;
56477;SDS011;42382;53.210;5.772;2022-08-16T11:54:47;8.73;;;6.45;;
56477;SDS011;42382;53.210;5.772;2022-08-16T11:57:13;8.38;;;7.32;;
56477;SDS011;42382;53.210;5.772;2022-08-16T11:59:39;6.85;;;5.75;;
56477;SDS011;42382;53.210;5.772;2022-08-16T12:02:05;5.35;;;4.80;;
56477;SDS011;42382;53.210;5.772;2022-08-16T12:04:32;8.23;;;6.22;;
56477;SDS011;42382;53.210;5.772;2022-08-16T12:06:59;9.23;;;5.32;;
56477;SDS011;42382;53.210;5.772;2022-08-16T12:09:26;6.60;;;5.70;;
56477;SDS011;42382;53.210;5.772;2022-08-16T12:11:52;5.72;;;4.75;;
56477;SDS011;42382;53.210;5.772;2022-08-16T12:14:18;6.88;;;4.55;;
56477;SDS011;42382;53.210;5.772;2022-08-16T12:16:44;6.85;;;5.80;;
56477;SDS011;42382;53.210;5.772;2022-08-16T12:19:10;5.57;;;4.00;;
56477;SDS011;42382;53.210;5.772;2022-08-16T12:21:36;6.13;;;3.40;;
56477;SDS011;42382;53.210;5.772;2022-08-16T12:24:03;4.68;;;3.42;;
56477;SDS011;42382;53.210;5.772;2022-08-16T12:26:30;4.97;;;3.75;;
56477;SDS011;42382;53.210;5.772;2022-08-16T12:28:56;8.27;;;4.55;;
56477;SDS011;42382;53.210;5.772;2022-08-16T12:31:22;8.57;;;6.32;;
56477;SDS011;42382;53.210;5.772;2022-08-16T12:33:49;8.02;;;5.70;;
56477;SDS011;42382;53.210;5.772;2022-08-16T12:36:14;6.97;;;5.82;;
56477;SDS011;42382;53.210;5.772;2022-08-16T12:38:41;7.97;;;5.95;;
56477;SDS011;42382;53.210;5.772;2022-08-16T12:41:07;5.90;;;4.70;;
56477;SDS011;42382;53.210;5.772;2022-08-16T12:43:34;10.90;;;7.13;;
56477;SDS011;42382;53.210;5.772;2022-08-16T12:46:00;6.50;;;5.63;;
56477;SDS011;42382;53.210;5.772;2022-08-16T12:48:28;6.63;;;5.78;;
56477;SDS011;42382;53.210;5.772;2022-08-16T12:51:15;5.10;;;4.57;;
56477;SDS011;42382;53.210;5.772;2022-08-16T12:53:42;6.40;;;5.70;;
56477;SDS011;42382;53.210;5.772;2022-08-16T12:56:09;8.93;;;6.07;;
56477;SDS011;42382;53.210;5.772;2022-08-16T12:58:36;5.32;;;4.53;;
56477;SDS011;42382;53.210;5.772;2022-08-16T13:01:03;5.05;;;4.55;;
56477;SDS011;42382;53.210;5.772;2022-08-16T13:03:29;6.35;;;5.85;;
56477;SDS011;42382;53.210;5.772;2022-08-16T13:05:55;7.60;;;5.53;;
56477;SDS011;42382;53.210;5.772;2022-08-16T13:08:21;6.70;;;5.28;;
56477;SDS011;42382;53.210;5.772;2022-08-16T13:10:48;7.65;;;5.57;;
56477;SDS011;42382;53.210;5.772;2022-08-16T13:13:17;9.68;;;6.82;;
56477;SDS011;42382;53.210;5.772;2022-08-16T13:15:55;9.15;;;7.53;;
56477;SDS011;42382;53.210;5.772;2022-08-16T13:18:24;7.18;;;6.50;;
56477;SDS011;42382;53.210;5.772;2022-08-16T13:20:52;8.38;;;7.47;;
56477;SDS011;42382;53.210;5.772;2022-08-16T13:23:18;9.40;;;8.27;;
56477;SDS011;42382;53.210;5.772;2022-08-16T13:25:44;9.52;;;8.60;;
56477;SDS011;42382;53.210;5.772;2022-08-16T13:28:11;13.23;;;11.90;;
56477;SDS011;42382;53.210;5.772;2022-08-16T13:30:42;12.60;;;11.43;;
56477;SDS011;42382;53.210;5.772;2022-08-16T13:33:15;11.15;;;10.15;;
56477;SDS011;42382;53.210;5.772;2022-08-16T13:35:46;10.70;;;8.65;;
56477;SDS011;42382;53.210;5.772;2022-08-16T13:38:14;10.65;;;9.55;;
56477;SDS011;42382;53.210;5.772;2022-08-16T13:40:39;7.65;;;6.18;;
56477;SDS011;42382;53.210;5.772;2022-08-16T13:43:05;8.20;;;7.38;;
56477;SDS011;42382;53.210;5.772;2022-08-16T13:45:31;8.77;;;6.60;;
56477;SDS011;42382;53.210;5.772;2022-08-16T13:47:57;8.05;;;5.90;;
56477;SDS011;42382;53.210;5.772;2022-08-16T13:50:23;6.70;;;6.10;;
56477;SDS011;42382;53.210;5.772;2022-08-16T13:52:49;7.50;;;6.78;;
56477;SDS011;42382;53.210;5.772;2022-08-16T13:55:15;7.82;;;5.80;;
56477;SDS011;42382;53.210;5.772;2022-08-16T13:57:41;7.15;;;6.07;;
56477;SDS011;42382;53.210;5.772;2022-08-16T14:00:07;5.93;;;5.18;;
56477;SDS011;42382;53.210;5.772;2022-08-16T14:02:33;6.13;;;5.32;;
56477;SDS011;42382;53.210;5.772;2022-08-16T14:04:59;7.28;;;6.13;;
56477;SDS011;42382;53.210;5.772;2022-08-16T14:07:25;6.53;;;5.60;;
56477;SDS011;42382;53.210;5.772;2022-08-16T14:09:51;6.35;;;5.13;;
56477;SDS011;42382;53.210;5.772;2022-08-16T14:12:21;6.75;;;6.22;;
56477;SDS011;42382;53.210;5.772;2022-08-16T14:14:49;7.40;;;6.03;;
56477;SDS011;42382;53.210;5.772;2022-08-16T14:17:15;8.90;;;6.63;;
56477;SDS011;42382;53.210;5.772;2022-08-16T14:19:41;8.63;;;7.70;;
56477;SDS011;42382;53.210;5.772;2022-08-16T14:22:07;7.88;;;7.07;;
56477;SDS011;42382;53.210;5.772;2022-08-16T14:24:34;7.80;;;7.05;;
56477;SDS011;42382;53.210;5.772;2022-08-16T14:27:00;7.30;;;6.60;;